Terminal Aerodrome Forecast
Issued by NWS

Home | Current Version | Previous Version | Text Only | Print | Product List | Glossary On
Versions: 1 2 3 4 5 6 7 8 9 10 11 12 13
000
FTUS43 KMPX 162339
TAFRNH
TAF
KRNH 162339Z 1700/1724 18009KT P6SM BKN250
     FM171100 19006KT P6SM VCSH OVC050
      TEMPO 1712/1716 3SM -SN BR OVC025
     FM171600 26009KT P6SM SCT150=

USA.gov is the U.S. government's official web portal to all federal, state and local government web resources and services.